Time;durP1;ratioP1;P1;durP2;ratioP2;P2;SDS_P1;SDS_P2;PMS_P1;PMS_P2;Temp;Humidity;BMP_temperature;BMP_pressure;BME280_temperature;BME280_humidity;BME280_pressure;Samples;Min_cycle;Max_cycle;Signal;HPM_P1;HPM_P2
2022/07/30 00:02:03;;;;;;;8.43;3.55;;;16.90;99.90;;;;;;4962020;28;20031;-55
2022/07/30 00:04:29;;;;;;;7.68;3.38;;;16.80;99.90;;;;;;4966089;28;20105;-56
2022/07/30 00:06:55;;;;;;;6.18;3.28;;;16.80;99.90;;;;;;4960205;28;20154;-53
2022/07/30 00:09:20;;;;;;;6.88;3.67;;;16.80;99.90;;;;;;4957978;28;20477;-52
2022/07/30 00:11:46;;;;;;;10.25;4.35;;;16.80;99.90;;;;;;4957903;28;20038;-52
2022/07/30 00:14:12;;;;;;;6.28;3.00;;;16.70;99.90;;;;;;4964999;28;20027;-58
2022/07/30 00:16:37;;;;;;;5.85;3.10;;;16.70;99.90;;;;;;4957604;28;20503;-51
2022/07/30 00:19:03;;;;;;;7.95;3.08;;;16.70;99.90;;;;;;4956814;28;20045;-54
2022/07/30 00:21:29;;;;;;;8.60;3.55;;;16.60;99.90;;;;;;4961321;28;20449;-53
2022/07/30 00:23:54;;;;;;;6.03;2.95;;;16.60;99.90;;;;;;4962965;28;20149;-56
2022/07/30 00:26:20;;;;;;;10.50;3.35;;;16.60;99.90;;;;;;4961154;28;20026;-50
2022/07/30 00:28:46;;;;;;;6.53;2.72;;;16.60;99.90;;;;;;4963305;28;20110;-56
2022/07/30 00:31:11;;;;;;;5.45;2.97;;;16.60;99.90;;;;;;4963433;28;20034;-51
2022/07/30 00:33:37;;;;;;;6.25;3.25;;;16.60;99.90;;;;;;4962766;28;20042;-53
2022/07/30 00:36:03;;;;;;;9.18;3.72;;;16.60;99.90;;;;;;4971229;28;20027;-53
2022/07/30 00:38:28;;;;;;;6.80;3.42;;;16.50;99.90;;;;;;4969643;28;20400;-54
2022/07/30 00:40:54;;;;;;;7.10;3.97;;;16.50;99.90;;;;;;4971810;28;20019;-52
2022/07/30 00:43:19;;;;;;;8.13;3.42;;;16.50;99.90;;;;;;4970161;28;20023;-56
2022/07/30 00:45:45;;;;;;;6.82;3.20;;;16.40;99.90;;;;;;4969405;28;20146;-52
2022/07/30 00:48:12;;;;;;;6.07;2.95;;;16.40;99.90;;;;;;4971868;28;20030;-53
2022/07/30 00:50:39;;;;;;;7.18;3.45;;;16.30;99.90;;;;;;4970946;28;20486;-53
2022/07/30 00:53:06;;;;;;;7.78;3.28;;;16.30;99.90;;;;;;4971291;28;20034;-54
2022/07/30 00:55:31;;;;;;;9.73;3.33;;;16.30;99.90;;;;;;4970857;28;20125;-55
2022/07/30 00:57:57;;;;;;;11.65;3.50;;;16.20;99.90;;;;;;4971490;28;20114;-53
2022/07/30 01:00:24;;;;;;;10.25;3.17;;;16.20;99.90;;;;;;4971647;28;20031;-51
2022/07/30 01:02:50;;;;;;;14.43;3.47;;;16.10;99.90;;;;;;4970468;28;20038;-57
2022/07/30 01:05:16;;;;;;;8.43;3.42;;;16.10;99.90;;;;;;4954423;28;20037;-57
2022/07/30 01:07:42;;;;;;;7.85;3.22;;;16.10;99.90;;;;;;4971506;28;20035;-54
2022/07/30 01:10:09;;;;;;;7.35;4.07;;;16.00;99.90;;;;;;4973110;28;20106;-55
2022/07/30 01:12:36;;;;;;;8.40;3.47;;;16.00;99.90;;;;;;4971262;28;20026;-54
2022/07/30 01:15:06;;;;;;;12.23;4.00;;;16.00;99.90;;;;;;4970940;28;20101;-56
2022/07/30 01:17:32;;;;;;;6.22;3.35;;;16.00;99.90;;;;;;4970959;28;20110;-52
2022/07/30 01:20:08;;;;;;;10.50;3.75;;;15.90;99.90;;;;;;4970502;28;20034;-56
2022/07/30 01:22:41;;;;;;;9.35;3.83;;;15.90;99.90;;;;;;4969053;28;20034;-57
2022/07/30 01:25:32;;;;;;;6.10;3.60;;;15.80;99.90;;;;;;4961505;28;20102;-55
2022/07/30 01:28:06;;;;;;;11.07;4.05;;;15.80;99.90;;;;;;4954495;28;20031;-54
2022/07/30 01:30:35;;;;;;;17.88;5.10;;;15.70;99.90;;;;;;4961854;28;20055;-57
2022/07/30 01:33:03;;;;;;;7.57;4.15;;;15.70;99.90;;;;;;4959005;28;20038;-53
2022/07/30 01:35:31;;;;;;;6.50;4.38;;;15.60;99.90;;;;;;4956041;28;20392;-53
2022/07/30 01:37:59;;;;;;;7.28;4.18;;;15.60;99.90;;;;;;4965836;28;20030;-53
2022/07/30 01:40:27;;;;;;;6.85;4.30;;;15.50;99.90;;;;;;4967847;28;20031;-53
2022/07/30 01:42:56;;;;;;;7.30;4.72;;;15.50;99.90;;;;;;4991746;23;20072;-56
2022/07/30 01:45:28;;;;;;;11.00;4.50;;;15.40;99.90;;;;;;4986093;28;20036;-57
2022/07/30 01:47:55;;;;;;;6.40;4.97;;;15.40;99.90;;;;;;4986293;28;20496;-57
2022/07/30 01:50:21;;;;;;;10.73;4.93;;;15.30;99.90;;;;;;4988510;28;20034;-54
2022/07/30 01:52:51;;;;;;;11.77;4.78;;;15.30;99.90;;;;;;4987464;28;20093;-58
2022/07/30 01:55:24;;;;;;;7.80;4.15;;;15.30;99.90;;;;;;4989009;28;20038;-55
2022/07/30 01:57:50;;;;;;;8.15;4.53;;;15.30;99.90;;;;;;4989150;28;20113;-55
2022/07/30 02:00:17;;;;;;;9.98;3.92;;;15.30;99.90;;;;;;4989907;28;20121;-56
2022/07/30 02:02:44;;;;;;;7.68;4.15;;;15.20;99.90;;;;;;4973418;28;20030;-57
2022/07/30 02:05:09;;;;;;;11.38;5.03;;;15.30;99.90;;;;;;4973263;28;20542;-56
2022/07/30 02:07:35;;;;;;;9.40;4.28;;;15.30;99.90;;;;;;4989346;28;20046;-56
2022/07/30 02:10:04;;;;;;;9.80;4.70;;;15.30;99.90;;;;;;4989228;28;20023;-59
2022/07/30 02:12:32;;;;;;;8.18;3.67;;;15.20;99.90;;;;;;4992379;28;20168;-56
2022/07/30 02:15:01;;;;;;;11.20;3.92;;;15.30;99.90;;;;;;4990018;28;20037;-58
2022/07/30 02:17:31;;;;;;;6.35;3.85;;;15.20;99.90;;;;;;4989621;28;20393;-57
2022/07/30 02:19:59;;;;;;;7.20;4.00;;;15.20;99.90;;;;;;4996393;28;20030;-57
2022/07/30 02:22:27;;;;;;;9.70;4.07;;;15.20;99.90;;;;;;4987973;28;20101;-57
2022/07/30 02:24:55;;;;;;;6.55;3.97;;;15.10;99.90;;;;;;4990233;28;20552;-56
2022/07/30 02:27:27;;;;;;;6.80;3.88;;;15.10;99.90;;;;;;4988177;28;20087;-55
2022/07/30 02:29:56;;;;;;;7.30;4.68;;;15.00;99.90;;;;;;4990233;28;20038;-57
2022/07/30 02:32:25;;;;;;;5.68;4.00;;;15.00;99.90;;;;;;4991215;28;20026;-47
2022/07/30 02:34:56;;;;;;;7.28;4.63;;;15.00;99.90;;;;;;4995341;28;20101;-57
2022/07/30 02:37:24;;;;;;;7.93;4.03;;;14.90;99.90;;;;;;4987239;28;20484;-54
2022/07/30 02:39:52;;;;;;;9.25;3.95;;;14.90;99.90;;;;;;4991998;28;20109;-58
2022/07/30 02:42:20;;;;;;;7.75;4.90;;;14.90;99.90;;;;;;4982665;28;20022;-55
2022/07/30 02:44:49;;;;;;;11.05;5.25;;;14.80;99.90;;;;;;4992966;28;20037;-59
2022/07/30 02:47:16;;;;;;;8.70;4.78;;;14.70;99.90;;;;;;4994556;28;20041;-58
2022/07/30 02:49:43;;;;;;;8.63;4.65;;;14.70;99.90;;;;;;4981982;28;20038;-51
2022/07/30 02:52:12;;;;;;;7.40;4.78;;;14.70;99.90;;;;;;4986697;28;20073;-57
2022/07/30 02:54:39;;;;;;;11.77;4.90;;;14.60;99.90;;;;;;4984249;28;20034;-56
2022/07/30 02:57:06;;;;;;;14.02;4.55;;;14.60;99.90;;;;;;4989088;28;20023;-57
2022/07/30 02:59:32;;;;;;;12.38;4.80;;;14.50;99.90;;;;;;4982947;28;20384;-54
2022/07/30 03:01:59;;;;;;;7.93;4.65;;;14.50;99.90;;;;;;5001112;28;20042;-52
2022/07/30 03:04:26;;;;;;;9.07;5.03;;;14.50;99.90;;;;;;5004813;28;20023;-56
2022/07/30 03:06:54;;;;;;;12.98;5.00;;;14.50;99.90;;;;;;4999528;28;20049;-56
2022/07/30 03:09:20;;;;;;;9.52;5.40;;;14.40;99.90;;;;;;4994883;28;20032;-56
2022/07/30 03:11:50;;;;;;;9.82;5.32;;;14.40;99.90;;;;;;4997800;28;20507;-57
2022/07/30 03:14:16;;;;;;;9.75;5.18;;;14.40;99.90;;;;;;4997745;28;20023;-52
2022/07/30 03:16:47;;;;;;;8.82;5.13;;;14.40;99.90;;;;;;4999791;28;20026;-57
2022/07/30 03:19:16;;;;;;;10.05;5.22;;;14.40;99.90;;;;;;4993530;28;20058;-55
2022/07/30 03:21:44;;;;;;;7.18;4.93;;;14.40;99.90;;;;;;4991581;28;20030;-57
2022/07/30 03:24:12;;;;;;;13.18;4.95;;;14.40;99.90;;;;;;4993337;28;20106;-56
2022/07/30 03:26:39;;;;;;;8.07;4.82;;;14.40;99.90;;;;;;4998109;28;20076;-56
2022/07/30 03:29:07;;;;;;;10.80;5.18;;;14.40;99.90;;;;;;4991636;28;20085;-54
2022/07/30 03:31:34;;;;;;;11.90;5.47;;;14.40;99.90;;;;;;4993818;28;20033;-57
2022/07/30 03:34:01;;;;;;;7.53;5.40;;;14.40;99.90;;;;;;4998691;28;20097;-57
2022/07/30 03:36:27;;;;;;;10.05;5.57;;;14.40;99.90;;;;;;4996686;28;20585;-57
2022/07/30 03:38:53;;;;;;;9.45;5.20;;;14.40;99.90;;;;;;4999680;28;20476;-56
2022/07/30 03:41:20;;;;;;;9.90;4.32;;;14.50;99.90;;;;;;4998041;28;20077;-58
2022/07/30 03:43:46;;;;;;;7.15;4.43;;;14.50;99.90;;;;;;5003302;28;20511;-55
2022/07/30 03:46:12;;;;;;;9.40;4.13;;;14.50;99.90;;;;;;4991477;28;20034;-53
2022/07/30 03:48:39;;;;;;;7.32;4.50;;;14.60;99.90;;;;;;4990136;28;20058;-57
2022/07/30 03:51:08;;;;;;;8.20;4.90;;;14.60;99.90;;;;;;4991613;28;20396;-54
2022/07/30 03:53:34;;;;;;;7.03;4.97;;;14.60;99.90;;;;;;4993256;28;20026;-57
2022/07/30 03:56:00;;;;;;;7.68;5.40;;;14.60;99.90;;;;;;4990910;28;20022;-58
2022/07/30 03:58:26;;;;;;;10.13;4.60;;;14.60;99.90;;;;;;4991378;28;20025;-56
2022/07/30 04:00:52;;;;;;;10.95;4.97;;;14.50;99.90;;;;;;4991172;28;20019;-55
2022/07/30 04:03:29;;;;;;;10.52;5.38;;;14.50;99.90;;;;;;4989387;28;20034;-57
2022/07/30 04:05:55;;;;;;;10.05;6.00;;;14.40;99.90;;;;;;4986448;28;20023;-57
2022/07/30 04:08:20;;;;;;;11.82;6.18;;;14.50;99.90;;;;;;5000897;28;20053;-54
2022/07/30 04:10:47;;;;;;;10.75;6.05;;;14.40;99.90;;;;;;4994412;28;20022;-57
2022/07/30 04:13:13;;;;;;;8.70;5.47;;;14.40;99.90;;;;;;4990030;28;20034;-58
2022/07/30 04:16:00;;;;;;;8.52;5.30;;;14.40;99.90;;;;;;4991411;28;20544;-56
2022/07/30 04:18:30;;;;;;;8.25;5.35;;;14.40;99.90;;;;;;5000585;28;20515;-58
2022/07/30 04:20:58;;;;;;;11.75;6.05;;;14.40;99.90;;;;;;4991108;28;20030;-59
2022/07/30 04:23:23;;;;;;;8.70;6.35;;;14.40;99.90;;;;;;4993381;28;20031;-58
2022/07/30 04:25:50;;;;;;;7.90;5.25;;;14.30;99.90;;;;;;4991020;28;20092;-54
2022/07/30 04:28:17;;;;;;;6.88;5.43;;;14.30;99.90;;;;;;4990544;28;20030;-55
2022/07/30 04:30:42;;;;;;;10.63;5.30;;;14.40;99.90;;;;;;4993634;28;20080;-55
2022/07/30 04:33:08;;;;;;;11.20;5.22;;;14.50;99.90;;;;;;4990753;28;20034;-54
2022/07/30 04:35:34;;;;;;;9.07;5.25;;;14.50;99.90;;;;;;4994116;28;20023;-55
2022/07/30 04:38:02;;;;;;;8.98;5.50;;;14.70;99.90;;;;;;4989990;28;20408;-55
2022/07/30 04:40:30;;;;;;;9.13;4.93;;;14.80;99.90;;;;;;4989887;28;20380;-55
2022/07/30 04:42:56;;;;;;;9.95;5.38;;;14.90;99.90;;;;;;4989426;28;20484;-54
2022/07/30 04:45:21;;;;;;;11.60;4.90;;;14.90;99.90;;;;;;4990679;28;20045;-56
2022/07/30 04:47:47;;;;;;;7.60;4.90;;;15.10;99.90;;;;;;4990618;28;20026;-57
2022/07/30 04:50:13;;;;;;;13.43;6.47;;;15.20;99.90;;;;;;4990323;28;20052;-57
2022/07/30 04:52:40;;;;;;;6.53;4.68;;;15.30;99.90;;;;;;4990521;28;20045;-57
2022/07/30 04:55:08;;;;;;;12.23;4.97;;;15.30;99.90;;;;;;4987674;28;20046;-52
2022/07/30 04:57:36;;;;;;;8.75;5.07;;;15.40;99.90;;;;;;4989028;28;20030;-59
2022/07/30 05:00:05;;;;;;;8.63;5.00;;;15.80;99.90;;;;;;4989687;28;20030;-59
2022/07/30 05:02:36;;;;;;;8.15;5.40;;;16.10;99.90;;;;;;4989969;28;20113;-57
2022/07/30 05:05:03;;;;;;;11.23;5.55;;;16.40;99.90;;;;;;4990306;28;20491;-58
2022/07/30 05:07:30;;;;;;;10.85;5.90;;;16.60;99.90;;;;;;4989768;28;20018;-57
2022/07/30 05:09:56;;;;;;;11.65;6.03;;;16.70;99.90;;;;;;4989055;28;20100;-56
2022/07/30 05:12:32;;;;;;;11.35;5.65;;;16.80;99.90;;;;;;4989557;28;20093;-52
2022/07/30 05:14:57;;;;;;;10.02;6.80;;;17.00;99.90;;;;;;4990329;28;20508;-57
2022/07/30 05:17:23;;;;;;;9.60;5.05;;;17.50;99.90;;;;;;4992627;28;20106;-58
2022/07/30 05:19:48;;;;;;;9.27;5.72;;;17.90;99.90;;;;;;4992044;28;20033;-55
2022/07/30 05:22:14;;;;;;;20.13;7.50;;;18.80;99.90;;;;;;5000180;28;20033;-57
2022/07/30 05:24:40;;;;;;;9.20;5.65;;;19.60;99.90;;;;;;4989575;28;20054;-56
2022/07/30 05:27:05;;;;;;;9.80;5.07;;;20.30;99.90;;;;;;4988162;28;20377;-58
2022/07/30 05:29:31;;;;;;;7.97;4.78;;;20.90;99.90;;;;;;4988296;28;20025;-57
2022/07/30 05:31:56;;;;;;;10.40;5.10;;;21.50;99.60;;;;;;4990006;28;20077;-56
2022/07/30 05:34:22;;;;;;;9.90;4.15;;;22.10;98.00;;;;;;4989682;28;20029;-52
2022/07/30 05:36:48;;;;;;;6.35;4.00;;;22.90;95.80;;;;;;4989870;28;20023;-59
2022/07/30 05:39:15;;;;;;;9.70;4.40;;;23.50;94.20;;;;;;4988163;28;20045;-56
2022/07/30 05:41:40;;;;;;;6.05;3.75;;;23.60;93.20;;;;;;4988946;28;20065;-57
2022/07/30 05:44:06;;;;;;;7.35;3.35;;;24.00;92.80;;;;;;4988206;28;20066;-57
2022/07/30 05:46:32;;;;;;;6.93;4.00;;;24.90;90.70;;;;;;4989506;28;20031;-54
2022/07/30 05:48:58;;;;;;;5.22;3.45;;;25.30;88.30;;;;;;4990483;28;20043;-55
2022/07/30 05:51:24;;;;;;;7.28;4.10;;;25.30;88.30;;;;;;4987900;28;20501;-60
2022/07/30 05:53:49;;;;;;;6.03;3.60;;;24.90;88.00;;;;;;4988258;28;20026;-55
2022/07/30 05:56:15;;;;;;;7.85;5.28;;;24.70;87.70;;;;;;4988644;28;20029;-58
2022/07/30 05:58:41;;;;;;;10.85;5.20;;;24.30;89.50;;;;;;4988106;28;20119;-57
2022/07/30 06:01:06;;;;;;;9.80;4.75;;;24.40;89.70;;;;;;4988087;28;20026;-57
2022/07/30 06:03:33;;;;;;;11.07;5.57;;;24.50;89.00;;;;;;4990524;28;20034;-56
2022/07/30 06:05:59;;;;;;;13.82;6.30;;;25.00;88.30;;;;;;4985781;28;20042;-58
2022/07/30 06:08:24;;;;;;;15.80;6.85;;;25.30;88.50;;;;;;4988305;28;20038;-54
2022/07/30 06:10:50;;;;;;;12.75;6.53;;;26.20;83.30;;;;;;4990982;28;20484;-59
2022/07/30 06:13:16;;;;;;;16.08;6.38;;;26.50;82.60;;;;;;4988872;28;20034;-57
2022/07/30 06:15:41;;;;;;;9.90;5.90;;;26.70;82.00;;;;;;4989261;28;20031;-60
2022/07/30 06:18:07;;;;;;;13.98;5.82;;;26.30;81.70;;;;;;4989224;28;20043;-59
2022/07/30 06:20:32;;;;;;;13.63;6.60;;;26.90;82.10;;;;;;4994041;28;20037;-58
2022/07/30 06:22:58;;;;;;;12.52;7.10;;;27.40;81.30;;;;;;4990259;28;20045;-59
2022/07/30 06:25:24;;;;;;;12.75;6.82;;;26.60;79.10;;;;;;4998806;28;20575;-61
2022/07/30 06:27:49;;;;;;;14.10;7.40;;;26.30;81.20;;;;;;5000623;28;20031;-59
2022/07/30 06:30:15;;;;;;;10.98;6.88;;;26.20;80.70;;;;;;4988320;28;20026;-57
2022/07/30 06:32:42;;;;;;;14.90;6.53;;;26.50;81.50;;;;;;4990066;28;20030;-59
2022/07/30 06:35:08;;;;;;;11.35;6.93;;;26.80;80.30;;;;;;4994800;28;20018;-58
2022/07/30 06:37:33;;;;;;;10.98;6.82;;;27.20;79.70;;;;;;4992669;28;20106;-60
2022/07/30 06:39:59;;;;;;;12.65;7.15;;;27.30;79.60;;;;;;4994949;28;20037;-58
2022/07/30 06:42:25;;;;;;;11.70;7.40;;;27.90;77.50;;;;;;4992140;28;20405;-59
2022/07/30 06:44:50;;;;;;;10.93;6.82;;;27.90;76.40;;;;;;4998471;28;20038;-59
2022/07/30 06:47:24;;;;;;;12.38;6.65;;;27.90;76.50;;;;;;4999501;28;20030;-59
2022/07/30 06:49:50;;;;;;;17.77;7.30;;;27.90;76.10;;;;;;4991385;28;20038;-59
2022/07/30 06:52:16;;;;;;;14.63;7.28;;;27.90;76.30;;;;;;4989810;28;20030;-60
2022/07/30 06:54:42;;;;;;;15.52;7.00;;;28.00;76.00;;;;;;4993800;28;20029;-61
2022/07/30 06:57:07;;;;;;;12.68;7.53;;;28.40;75.80;;;;;;4990728;28;20785;-57
2022/07/30 06:59:33;;;;;;;14.40;7.53;;;28.90;76.30;;;;;;4992241;28;20054;-60
2022/07/30 07:01:59;;;;;;;11.70;7.32;;;28.60;74.70;;;;;;4968311;28;20069;-58
2022/07/30 07:04:25;;;;;;;15.30;8.10;;;28.60;74.60;;;;;;4991738;28;20049;-53
2022/07/30 07:06:50;;;;;;;17.20;8.18;;;29.00;74.00;;;;;;4990624;28;20381;-59
2022/07/30 07:09:16;;;;;;;20.45;9.68;;;28.60;75.10;;;;;;4989064;28;20022;-60
2022/07/30 07:11:42;;;;;;;18.02;8.00;;;28.40;74.10;;;;;;4991650;28;20030;-60
2022/07/30 07:14:08;;;;;;;13.75;7.80;;;28.80;74.70;;;;;;4992490;28;20030;-59
2022/07/30 07:16:34;;;;;;;12.93;7.43;;;28.80;74.10;;;;;;4998029;28;20022;-60
2022/07/30 07:18:59;;;;;;;13.40;7.63;;;28.80;74.70;;;;;;4987241;28;20108;-59
2022/07/30 07:21:25;;;;;;;14.45;8.38;;;28.80;74.20;;;;;;4991795;28;20073;-59
2022/07/30 07:23:50;;;;;;;14.30;7.82;;;28.80;74.30;;;;;;4992397;28;20038;-60
2022/07/30 07:26:16;;;;;;;9.95;7.10;;;29.80;73.20;;;;;;4996431;28;20033;-61
2022/07/30 07:28:42;;;;;;;13.10;7.45;;;29.80;72.80;;;;;;4999521;28;20030;-54
2022/07/30 07:31:09;;;;;;;15.38;7.25;;;30.00;72.20;;;;;;4994009;28;20124;-61
2022/07/30 07:33:36;;;;;;;17.08;8.10;;;29.90;71.90;;;;;;4992657;28;20184;-60
2022/07/30 07:36:02;;;;;;;16.70;7.78;;;30.40;72.50;;;;;;4994036;28;20023;-60
2022/07/30 07:38:28;;;;;;;18.23;7.32;;;30.50;70.30;;;;;;4992078;28;20469;-59
2022/07/30 07:40:53;;;;;;;11.82;7.30;;;30.10;71.20;;;;;;4991627;28;20030;-62
2022/07/30 07:43:19;;;;;;;17.58;8.27;;;30.50;71.10;;;;;;4990126;28;20031;-60
2022/07/30 07:45:45;;;;;;;15.82;7.43;;;30.40;71.10;;;;;;4989669;28;20460;-60
2022/07/30 07:48:11;;;;;;;17.33;7.65;;;30.80;70.70;;;;;;4990885;28;20027;-60
2022/07/30 07:50:36;;;;;;;15.85;7.40;;;30.90;71.00;;;;;;4987441;28;20030;-60
2022/07/30 07:53:03;;;;;;;13.23;7.55;;;30.70;70.00;;;;;;4989144;28;20026;-60
2022/07/30 07:55:29;;;;;;;16.95;8.40;;;30.30;70.00;;;;;;4990288;28;20026;-61
2022/07/30 07:57:54;;;;;;;9.82;7.40;;;29.50;71.10;;;;;;4990228;28;20033;-59
2022/07/30 08:00:20;;;;;;;17.75;9.10;;;29.80;71.70;;;;;;4973769;28;20042;-58
2022/07/30 08:02:46;;;;;;;14.05;7.93;;;30.00;70.60;;;;;;4989313;28;20676;-60
2022/07/30 08:05:13;;;;;;;13.05;8.82;;;30.40;70.00;;;;;;4990659;28;20034;-59
2022/07/30 08:07:39;;;;;;;16.83;8.82;;;30.50;70.00;;;;;;4990733;28;20034;-60
2022/07/30 08:10:05;;;;;;;19.25;8.20;;;30.40;70.40;;;;;;4990056;28;20036;-58
2022/07/30 08:12:31;;;;;;;15.05;8.75;;;30.40;69.10;;;;;;4990220;28;20054;-60
2022/07/30 08:14:57;;;;;;;22.05;11.43;;;29.50;70.50;;;;;;4990167;28;20026;-61
2022/07/30 08:17:23;;;;;;;13.55;10.13;;;29.80;70.10;;;;;;4989524;28;20512;-61
2022/07/30 08:19:48;;;;;;;16.35;10.27;;;29.90;71.20;;;;;;4989235;28;20057;-60
2022/07/30 08:22:14;;;;;;;15.02;11.32;;;30.30;70.00;;;;;;4988895;28;20173;-58
2022/07/30 08:24:40;;;;;;;17.77;12.18;;;30.70;68.80;;;;;;4990237;28;20464;-61
2022/07/30 08:27:06;;;;;;;20.48;12.00;;;31.30;67.30;;;;;;4992463;28;20514;-61
2022/07/30 08:29:31;;;;;;;17.88;12.45;;;31.50;67.80;;;;;;4995688;28;20030;-57
2022/07/30 08:31:57;;;;;;;18.67;11.75;;;30.90;68.30;;;;;;4989781;28;20400;-58
2022/07/30 08:34:23;;;;;;;18.35;12.88;;;30.60;69.40;;;;;;4987956;28;20029;-55
2022/07/30 08:36:48;;;;;;;18.88;12.38;;;30.30;68.30;;;;;;4989720;28;20030;-59
2022/07/30 08:39:14;;;;;;;17.20;11.40;;;30.00;68.50;;;;;;4990175;28;20028;-59
2022/07/30 08:41:40;;;;;;;21.08;12.90;;;29.90;69.20;;;;;;4989667;28;20057;-57
2022/07/30 08:44:09;;;;;;;16.65;12.45;;;30.30;68.70;;;;;;4989678;28;20400;-55
2022/07/30 08:46:40;;;;;;;26.15;13.80;;;30.40;68.70;;;;;;4988571;28;20088;-58
2022/07/30 08:49:06;;;;;;;18.05;12.85;;;30.00;68.30;;;;;;4989608;28;20034;-56
2022/07/30 08:51:33;;;;;;;18.48;11.95;;;30.50;68.70;;;;;;4988599;28;20034;-57
2022/07/30 08:54:00;;;;;;;16.42;12.38;;;30.90;66.80;;;;;;4988213;28;20037;-58
2022/07/30 08:56:27;;;;;;;22.00;11.52;;;30.80;66.50;;;;;;4987804;28;20033;-49
2022/07/30 08:58:54;;;;;;;19.48;12.02;;;30.60;69.00;;;;;;4988815;28;20034;-57
2022/07/30 09:01:21;;;;;;;14.27;11.10;;;31.30;66.20;;;;;;4973354;28;20061;-59
2022/07/30 09:03:47;;;;;;;15.30;10.13;;;30.30;68.00;;;;;;4989667;28;20038;-58
2022/07/30 09:06:12;;;;;;;16.63;10.95;;;30.20;70.00;;;;;;4987260;28;20041;-55
2022/07/30 09:08:38;;;;;;;16.80;9.02;;;30.40;68.00;;;;;;4987872;28;20034;-55
2022/07/30 09:11:04;;;;;;;15.85;10.07;;;30.70;68.00;;;;;;4988598;28;20088;-62
2022/07/30 09:13:33;;;;;;;16.67;10.73;;;30.90;68.00;;;;;;4990378;28;20026;-58
2022/07/30 09:15:59;;;;;;;16.33;9.80;;;30.30;67.30;;;;;;4995862;28;20110;-57
2022/07/30 09:18:28;;;;;;;18.27;9.77;;;30.10;68.20;;;;;;4988407;28;20034;-54
2022/07/30 09:20:54;;;;;;;13.07;7.53;;;30.30;67.30;;;;;;4988294;28;20027;-58
2022/07/30 09:23:20;;;;;;;13.20;7.30;;;30.30;68.20;;;;;;4990405;28;20033;-58
2022/07/30 09:25:48;;;;;;;14.30;8.40;;;30.60;67.70;;;;;;4991020;28;20399;-55
2022/07/30 09:28:14;;;;;;;19.38;8.48;;;30.40;67.90;;;;;;4992020;28;20038;-56
2022/07/30 09:30:52;;;;;;;15.00;9.20;;;30.40;66.60;;;;;;4996197;28;20033;-57
2022/07/30 09:33:39;;;;;;;15.68;9.60;;;30.80;67.30;;;;;;4987599;28;20022;-59
2022/07/30 09:36:10;;;;;;;18.38;9.57;;;31.50;65.20;;;;;;4987879;28;20022;-59
2022/07/30 09:38:50;;;;;;;14.27;8.32;;;31.10;65.40;;;;;;4989748;28;20034;-58
2022/07/30 09:41:18;;;;;;;19.17;8.90;;;31.10;66.00;;;;;;4987722;28;20496;-57
2022/07/30 09:43:48;;;;;;;16.20;7.72;;;31.30;64.30;;;;;;4989049;28;20493;-57
2022/07/30 09:46:15;;;;;;;12.95;6.30;;;31.20;64.30;;;;;;4983432;28;20081;-58
2022/07/30 09:48:42;;;;;;;16.50;7.80;;;31.30;64.90;;;;;;4983297;28;20042;-58
2022/07/30 09:51:08;;;;;;;12.35;6.05;;;31.80;62.80;;;;;;4984653;28;20034;-52
2022/07/30 09:53:34;;;;;;;19.25;6.82;;;32.10;63.50;;;;;;4982455;28;20033;-58
2022/07/30 09:56:20;;;;;;;8.85;5.00;;;31.00;64.40;;;;;;4989550;28;20030;-57
2022/07/30 09:58:47;;;;;;;13.70;5.85;;;31.10;65.10;;;;;;4989541;28;20066;-58
2022/07/30 10:01:12;;;;;;;15.48;5.65;;;30.60;64.30;;;;;;4971353;28;20042;-58
2022/07/30 10:03:42;;;;;;;11.68;4.97;;;30.90;64.70;;;;;;4989747;28;20046;-57
2022/07/30 10:06:08;;;;;;;10.32;5.30;;;30.80;64.60;;;;;;4988360;28;20038;-56
2022/07/30 10:08:40;;;;;;;12.93;5.43;;;31.30;64.10;;;;;;4995875;28;20030;-56
2022/07/30 10:11:09;;;;;;;12.73;4.90;;;30.40;64.20;;;;;;4987543;28;20034;-57
2022/07/30 10:13:36;;;;;;;12.18;5.28;;;29.90;64.40;;;;;;4991904;28;20122;-52
2022/07/30 10:16:02;;;;;;;13.95;5.50;;;29.80;65.20;;;;;;4993105;28;20030;-56
2022/07/30 10:18:29;;;;;;;11.27;6.03;;;29.90;66.00;;;;;;4987266;28;20019;-54
2022/07/30 10:20:55;;;;;;;12.15;6.70;;;29.10;66.90;;;;;;4992885;28;20030;-56
2022/07/30 10:23:21;;;;;;;13.60;6.20;;;29.10;66.10;;;;;;4993701;28;20101;-59
2022/07/30 10:25:48;;;;;;;17.40;6.22;;;28.50;66.80;;;;;;4995470;28;20049;-60
2022/07/30 10:28:15;;;;;;;22.17;5.70;;;28.60;67.70;;;;;;5002371;28;20706;-59
2022/07/30 10:30:41;;;;;;;16.15;5.75;;;28.60;66.40;;;;;;4998730;28;20044;-59
2022/07/30 10:33:08;;;;;;;11.05;5.40;;;28.80;68.60;;;;;;4995764;28;20027;-58
2022/07/30 10:35:33;;;;;;;13.00;4.95;;;28.30;67.50;;;;;;4986953;28;20037;-59
2022/07/30 10:38:00;;;;;;;15.43;5.45;;;28.00;69.40;;;;;;4990836;28;20488;-60
2022/07/30 10:40:36;;;;;;;13.05;5.25;;;27.60;71.10;;;;;;4991496;28;20031;-57
2022/07/30 10:43:34;;;;;;;23.15;5.60;;;27.40;70.50;;;;;;4988652;28;20097;-58
2022/07/30 10:46:41;;;;;;;16.05;5.95;;;27.70;70.70;;;;;;4983712;28;20038;-58
2022/07/30 10:49:13;;;;;;;11.18;5.95;;;27.50;70.40;;;;;;4980010;28;20046;-58
2022/07/30 10:51:50;;;;;;;12.60;6.45;;;27.70;69.90;;;;;;4985069;28;20076;-59
2022/07/30 10:54:46;;;;;;;9.90;5.97;;;28.10;70.50;;;;;;4995557;28;20038;-58
2022/07/30 10:57:19;;;;;;;13.20;6.03;;;28.30;68.80;;;;;;4994798;28;20101;-59
2022/07/30 10:59:59;;;;;;;12.82;6.68;;;27.80;69.50;;;;;;4997367;28;20037;-59
2022/07/30 11:02:27;;;;;;;15.02;6.18;;;27.50;69.90;;;;;;4979453;28;20069;-59
2022/07/30 11:05:17;;;;;;;12.35;6.32;;;27.50;71.60;;;;;;4999074;28;20058;-57
2022/07/30 11:07:47;;;;;;;12.25;6.28;;;27.50;70.10;;;;;;4966055;28;20118;-58
2022/07/30 11:10:36;;;;;;;17.05;6.63;;;27.60;70.90;;;;;;4992500;28;20109;-58
2022/07/30 11:13:03;;;;;;;11.75;7.25;;;27.70;70.00;;;;;;4992098;28;20030;-59
2022/07/30 11:15:57;;;;;;;12.32;6.15;;;27.60;68.80;;;;;;4993770;28;20324;-59
2022/07/30 11:18:24;;;;;;;10.88;5.40;;;27.50;68.10;;;;;;4991824;28;20030;-59
2022/07/30 11:21:16;;;;;;;11.38;5.53;;;27.20;68.00;;;;;;4997415;28;20116;-58
2022/07/30 11:23:44;;;;;;;12.07;6.13;;;27.30;67.60;;;;;;4995668;28;20446;-53
2022/07/30 11:26:30;;;;;;;16.35;6.40;;;26.80;66.30;;;;;;4982861;28;20035;-58
2022/07/30 11:28:56;;;;;;;10.75;6.05;;;26.80;66.50;;;;;;4981897;28;20030;-55
2022/07/30 11:31:30;;;;;;;9.50;6.10;;;26.90;68.40;;;;;;4992821;28;20101;-59
2022/07/30 11:34:17;;;;;;;8.82;5.35;;;26.90;67.70;;;;;;4991503;28;20117;-58
2022/07/30 11:37:05;;;;;;;11.85;5.55;;;26.60;65.20;;;;;;4990634;28;20492;-57
2022/07/30 11:40:09;;;;;;;12.05;4.47;;;26.50;66.50;;;;;;4989842;28;20410;-57
2022/07/30 11:42:37;;;;;;;13.23;4.72;;;26.70;66.60;;;;;;4987715;28;20096;-61
2022/07/30 11:45:21;;;;;;;8.45;4.70;;;26.80;65.50;;;;;;4990404;28;20061;-58
2022/07/30 11:47:52;;;;;;;14.40;6.53;;;26.80;68.00;;;;;;4986003;28;20492;-59
2022/07/30 11:50:28;;;;;;;8.43;5.45;;;26.50;67.10;;;;;;4989681;28;20034;-61
2022/07/30 11:53:03;;;;;;;13.55;5.47;;;26.50;67.90;;;;;;4990590;28;20114;-57
2022/07/30 11:55:35;;;;;;;8.30;4.40;;;26.60;67.60;;;;;;4984378;28;20028;-59
2022/07/30 11:58:04;;;;;;;7.25;4.18;;;26.80;66.20;;;;;;4982831;28;20034;-57
2022/07/30 12:00:46;;;;;;;14.95;5.70;;;26.90;64.90;;;;;;4989381;28;20018;-52
2022/07/30 12:03:17;;;;;;;17.13;5.45;;;26.70;66.20;;;;;;4988287;28;20399;-58
2022/07/30 12:05:43;;;;;;;11.32;6.13;;;26.80;66.80;;;;;;4993622;28;20110;-54
2022/07/30 12:08:10;;;;;;;9.00;5.68;;;26.80;65.70;;;;;;4991255;28;20034;-58
2022/07/30 12:10:38;;;;;;;12.00;5.53;;;26.90;65.80;;;;;;4969720;28;20027;-60
2022/07/30 12:13:15;;;;;;;10.93;4.28;;;26.70;66.60;;;;;;4990017;28;20038;-58
2022/07/30 12:15:42;;;;;;;14.07;4.90;;;26.60;65.60;;;;;;4990860;28;20125;-56
2022/07/30 12:18:11;;;;;;;8.85;4.70;;;26.50;64.40;;;;;;4986617;28;20025;-59
2022/07/30 12:20:37;;;;;;;10.82;3.70;;;26.30;63.50;;;;;;4990129;28;20026;-59
2022/07/30 12:23:09;;;;;;;7.57;4.43;;;26.30;65.30;;;;;;4997553;28;20030;-56
2022/07/30 12:25:38;;;;;;;9.05;4.00;;;26.00;65.30;;;;;;4991464;28;20041;-60
2022/07/30 12:28:04;;;;;;;15.85;4.57;;;26.10;65.10;;;;;;4990842;28;20038;-58
2022/07/30 12:30:30;;;;;;;8.68;3.45;;;26.10;63.80;;;;;;4987604;28;20503;-53
2022/07/30 12:32:55;;;;;;;6.40;3.20;;;26.30;61.80;;;;;;4990712;28;20076;-58
2022/07/30 12:35:21;;;;;;;6.65;3.00;;;26.30;62.10;;;;;;4991267;28;20029;-57
2022/07/30 12:38:04;;;;;;;12.25;5.03;;;26.30;61.50;;;;;;4986468;28;20072;-56
2022/07/30 12:40:29;;;;;;;11.80;5.78;;;26.20;63.80;;;;;;4991212;28;20053;-59
2022/07/30 12:42:55;;;;;;;5.40;3.03;;;26.30;63.50;;;;;;4990681;28;20521;-59
2022/07/30 12:45:31;;;;;;;8.27;3.65;;;26.50;64.50;;;;;;4989718;28;20037;-58
2022/07/30 12:47:58;;;;;;;16.60;4.15;;;26.60;64.10;;;;;;4991636;28;20021;-54